Yoann-jordan — FGE5099 — position and weather

sailwx.info

Track history (hours):
 
Tides and Currents Weather Stations Pressure Air Temp Water Temp Dewpoint Dewpoint Depression Visibility Wind Speed Wind Dir Waves Ship Positions

Yoann-jordan

Last reported at 2018-Feb-22 17:03 UTC. Time now 2018-Feb-24 00:51 UTC.
Position N 46°27' W 001°52'.

Length 11 m.

Type: Fishing. MMSI: 227648190.

Date/timePositionNaut miles runAvg speedWind from/ knotsBaromVisibWave heightAir tempDewpointWater temp
2018-Feb-22 17:03N 46°27' W 001°52'0 1.9
2018-Feb-22 17:00N 46°27' W 001°52'2 4.8
2018-Feb-22 16:30N 46°28' W 001°49'2 0.4
2018-Feb-22 11:09N 46°30' W 001°48'2 6.0
2018-Feb-22 10:46N 46°28' W 001°50'2 8.3
2018-Feb-22 10:30N 46°27' W 001°53'1 1.3
2018-Feb-22 10:00N 46°27' W 001°52'3 5.4
2018-Feb-22 09:30N 46°28' W 001°49'2 3.6
2018-Feb-22 08:59N 46°30' W 001°47'0 0.0
2018-Feb-22 08:29N 46°30' W 001°47'0 0.0
2018-Feb-22 07:59N 46°30' W 001°47'0 0.0
2018-Feb-22 07:29N 46°30' W 001°47'0 0.0
2018-Feb-22 06:59N 46°30' W 001°47'0 0.0
2018-Feb-22 06:29N 46°30' W 001°47'0 0.0
2018-Feb-22 05:59N 46°30' W 001°47'0 0.0
2018-Feb-22 05:29N 46°30' W 001°47'0 0.0
2018-Feb-22 04:59N 46°30' W 001°47'0 0.0
2018-Feb-22 04:29N 46°30' W 001°47'0 0.3
2018-Feb-22 03:58N 46°30' W 001°47'0 0.4
2018-Feb-22 03:29N 46°30' W 001°47'0 0.0
2018-Feb-22 02:59N 46°30' W 001°47'2 4.7
2018-Feb-22 02:30N 46°28' W 001°49'4 7.8
2018-Feb-22 02:00N 46°26' W 001°54'4 7.4
2018-Feb-22 01:29N 46°25' W 001°59'3 7.0
2018-Feb-22 01:00N 46°24' W 002°04'  
2018-Feb-13 00:56N 46°29' W 001°48'3 7.7
2018-Feb-13 00:30N 46°27' W 001°51'4 8.5
2018-Feb-13 00:00N 46°24' W 001°56'  
Track history (hours):
 
Tides and Currents Weather Stations Pressure Air Temp Water Temp Dewpoint Dewpoint Depression Visibility Wind Speed Wind Dir Waves Ship Positions

Yoann-jordan

Last reported at 2018-Feb-22 17:03 UTC. Time now 2018-Feb-24 00:51 UTC.
Position N 46°27' W 001°52'.

Length 11 m.

Type: Fishing. MMSI: 227648190.

Date/timePositionNaut miles runAvg speedWind from/ knotsBaromVisibWave heightAir tempDewpointWater temp
2018-Feb-22 17:03N 46°27' W 001°52'0 1.9
2018-Feb-22 17:00N 46°27' W 001°52'2 4.8
2018-Feb-22 16:30N 46°28' W 001°49'2 0.4
2018-Feb-22 11:09N 46°30' W 001°48'2 6.0
2018-Feb-22 10:46N 46°28' W 001°50'2 8.3
2018-Feb-22 10:30N 46°27' W 001°53'1 1.3
2018-Feb-22 10:00N 46°27' W 001°52'3 5.4
2018-Feb-22 09:30N 46°28' W 001°49'2 3.6
2018-Feb-22 08:59N 46°30' W 001°47'0 0.0
2018-Feb-22 08:29N 46°30' W 001°47'0 0.0
2018-Feb-22 07:59N 46°30' W 001°47'0 0.0
2018-Feb-22 07:29N 46°30' W 001°47'0 0.0
2018-Feb-22 06:59N 46°30' W 001°47'0 0.0
2018-Feb-22 06:29N 46°30' W 001°47'0 0.0
2018-Feb-22 05:59N 46°30' W 001°47'0 0.0
2018-Feb-22 05:29N 46°30' W 001°47'0 0.0
2018-Feb-22 04:59N 46°30' W 001°47'0 0.0
2018-Feb-22 04:29N 46°30' W 001°47'0 0.3
2018-Feb-22 03:58N 46°30' W 001°47'0 0.4
2018-Feb-22 03:29N 46°30' W 001°47'0 0.0
2018-Feb-22 02:59N 46°30' W 001°47'2 4.7
2018-Feb-22 02:30N 46°28' W 001°49'4 7.8
2018-Feb-22 02:00N 46°26' W 001°54'4 7.4
2018-Feb-22 01:29N 46°25' W 001°59'3 7.0
2018-Feb-22 01:00N 46°24' W 002°04'  
2018-Feb-13 00:56N 46°29' W 001°48'3 7.7
2018-Feb-13 00:30N 46°27' W 001°51'4 8.5
2018-Feb-13 00:00N 46°24' W 001°56'  

Dump ship's entire track history